createdAt,value
2019-04-26T00:04:57.367Z,18.65
2019-04-26T00:10:49.104Z,18.56
2019-04-26T00:14:12.388Z,18.39
2019-04-26T00:17:03.639Z,18.40
2019-04-26T00:22:39.559Z,18.05
2019-04-26T00:25:12.478Z,18.05
2019-04-26T00:27:45.258Z,18.02
2019-04-26T00:33:01.777Z,18.07
2019-04-26T00:35:53.312Z,17.94
2019-04-26T00:42:02.012Z,17.71
2019-04-26T00:44:33.837Z,17.61
2019-04-26T00:47:24.921Z,17.61
2019-04-26T00:49:58.139Z,17.59
2019-04-26T00:52:30.327Z,17.64
2019-04-26T00:55:02.443Z,17.43
2019-04-26T00:57:53.729Z,17.52
2019-04-26T01:00:26.071Z,17.24
2019-04-26T01:03:18.532Z,17.28
2019-04-26T01:09:16.016Z,17.21
2019-04-26T01:11:48.524Z,17.26
2019-04-26T01:14:20.473Z,17.17
2019-04-26T01:17:11.447Z,17.18
2019-04-26T01:20:02.682Z,17.45
2019-04-26T01:29:08.953Z,17.64
2019-04-26T01:32:12.029Z,17.70
2019-04-26T01:37:34.449Z,17.63
2019-04-26T01:46:24.977Z,17.30
2019-04-26T01:52:33.943Z,17.51
2019-04-26T01:55:16.917Z,17.45
2019-04-26T01:58:27.909Z,17.45
2019-04-26T02:01:18.940Z,17.43
2019-04-26T02:04:29.862Z,17.43
2019-04-26T02:07:39.745Z,17.37
2019-04-26T02:10:13.059Z,17.47
2019-04-26T02:15:50.454Z,17.66
2019-04-26T02:18:41.254Z,17.82
2019-04-26T02:21:31.898Z,17.69
2019-04-26T02:24:34.858Z,17.85
2019-04-26T02:35:55.289Z,17.57
2019-04-26T02:38:27.893Z,17.72
2019-04-26T02:40:59.693Z,17.65
2019-04-26T02:43:50.506Z,17.84
2019-04-26T02:49:40.766Z,17.80
2019-04-26T02:52:46.443Z,17.86
2019-04-26T02:56:04.550Z,17.96
2019-04-26T02:59:09.497Z,18.29
2019-04-26T03:02:11.730Z,18.30
2019-04-26T03:04:43.941Z,18.09
2019-04-26T03:07:53.609Z,18.22
2019-04-26T03:17:26.686Z,18.45
2019-04-26T03:20:32.585Z,18.48
2019-04-26T03:23:59.427Z,18.35
2019-04-26T03:27:01.436Z,18.35
2019-04-26T03:30:22.637Z,18.18
2019-04-26T03:33:25.243Z,18.19
2019-04-26T03:36:33.888Z,18.22
2019-04-26T03:39:44.477Z,18.29
2019-04-26T03:46:04.693Z,18.16
2019-04-26T03:49:10.515Z,18.04
2019-04-26T03:52:19.488Z,18.02
2019-04-26T03:55:31.021Z,17.97
2019-04-26T03:58:13.835Z,18.01
2019-04-26T04:03:55.355Z,18.17
2019-04-26T04:07:03.454Z,18.16
2019-04-26T04:12:57.882Z,18.29
2019-04-26T04:15:59.353Z,18.28
2019-04-26T04:19:02.607Z,18.38
2019-04-26T04:22:04.942Z,18.41
2019-04-26T04:24:57.950Z,18.33
2019-04-26T04:28:05.345Z,18.56
2019-04-26T04:31:03.924Z,18.59
2019-04-26T04:34:13.740Z,18.61
2019-04-26T04:40:30.844Z,18.76
2019-04-26T04:43:33.674Z,18.58
2019-04-26T04:47:02.343Z,18.87
2019-04-26T04:53:17.841Z,18.87
2019-04-26T04:56:23.521Z,18.56
2019-04-26T04:59:13.499Z,18.54
2019-04-26T05:06:07.714Z,18.49
2019-04-26T05:08:59.553Z,18.52
2019-04-26T05:12:08.451Z,18.39
2019-04-26T05:18:53.071Z,18.35
2019-04-26T05:28:53.794Z,18.26
2019-04-26T05:31:57.860Z,18.37
2019-04-26T05:41:31.984Z,18.35
2019-04-26T05:48:09.300Z,18.87
2019-04-26T05:51:32.872Z,18.87
2019-04-26T05:54:31.361Z,18.92
2019-04-26T06:01:31.771Z,18.58
2019-04-26T06:18:07.486Z,17.92
2019-04-26T06:24:56.377Z,18.09
2019-04-26T06:31:30.302Z,18.19
2019-04-26T06:34:39.341Z,17.96
2019-04-26T06:37:42.489Z,18.09
2019-04-26T06:40:55.921Z,18.02
2019-04-26T06:44:07.731Z,18.23
2019-04-26T06:47:48.249Z,18.20
2019-04-26T06:53:43.045Z,18.41
2019-04-26T06:56:53.616Z,18.17
2019-04-26T06:59:47.952Z,17.93
2019-04-26T07:02:59.726Z,17.58
2019-04-26T07:08:58.097Z,17.40
2019-04-26T07:12:26.738Z,17.26
2019-04-26T07:15:38.641Z,17.50
2019-04-26T07:19:04.221Z,17.70
2019-04-26T07:22:35.537Z,17.69
2019-04-26T07:26:14.111Z,17.58
2019-04-26T07:28:56.256Z,17.39
2019-04-26T07:39:10.511Z,17.96
2019-04-26T07:49:19.967Z,18.38
2019-04-26T07:52:51.329Z,18.47
2019-04-26T07:55:46.415Z,18.30
2019-04-26T07:58:55.518Z,18.64
2019-04-26T08:05:04.285Z,18.54
2019-04-26T08:08:08.633Z,18.81
2019-04-26T08:11:11.549Z,18.81
2019-04-26T08:14:10.654Z,18.95
2019-04-26T08:17:41.227Z,19.04
2019-04-26T08:20:51.659Z,19.08
2019-04-26T08:27:21.338Z,19.02
2019-04-26T08:36:18.364Z,19.08
2019-04-26T08:46:02.864Z,19.05
2019-04-26T08:51:22.952Z,18.89
2019-04-26T08:54:14.912Z,18.70
2019-04-26T08:57:17.662Z,18.60
2019-04-26T09:03:17.318Z,18.67
2019-04-26T09:06:26.921Z,18.77
2019-04-26T09:12:22.313Z,18.68
2019-04-26T09:14:52.700Z,18.72
2019-04-26T09:17:42.458Z,18.77
2019-04-26T09:20:27.755Z,18.70
2019-04-26T09:23:26.033Z,18.54
2019-04-26T09:26:03.519Z,18.53
2019-04-26T09:29:14.223Z,18.47
2019-04-26T09:32:24.212Z,18.67
2019-04-26T09:35:35.906Z,18.67
2019-04-26T09:38:07.570Z,18.94
2019-04-26T09:41:00.642Z,18.97
2019-04-26T09:44:10.070Z,18.81
2019-04-26T09:47:19.852Z,19.06
2019-04-26T09:50:28.646Z,19.28
2019-04-26T09:56:40.901Z,19.20
2019-04-26T09:59:36.335Z,19.12
2019-04-26T10:02:19.018Z,18.99
2019-04-26T10:05:13.600Z,19.06
2019-04-26T10:08:13.083Z,19.15
2019-04-26T10:11:14.761Z,19.35
2019-04-26T10:14:08.650Z,19.51
2019-04-26T10:18:37.117Z,19.71
2019-04-26T10:20:30.894Z,19.42
2019-04-26T10:26:08.608Z,19.45
2019-04-26T10:29:21.804Z,19.45
2019-04-26T10:32:10.475Z,19.45
2019-04-26T10:35:00.433Z,19.54
2019-04-26T10:38:11.527Z,19.54
2019-04-26T10:44:16.990Z,19.98
2019-04-26T10:50:09.664Z,19.72
2019-04-26T10:53:20.031Z,19.45
2019-04-26T10:56:29.636Z,19.49
2019-04-26T10:59:39.814Z,19.70
2019-04-26T11:05:24.556Z,20.21
2019-04-26T11:11:44.564Z,20.31
2019-04-26T11:14:35.342Z,19.97
2019-04-26T11:20:45.501Z,19.91
2019-04-26T11:26:16.791Z,20.16
2019-04-26T11:31:54.218Z,20.29
2019-04-26T11:34:44.930Z,20.21
2019-04-26T11:37:17.929Z,20.43
2019-04-26T11:42:51.230Z,20.53
2019-04-26T11:45:45.422Z,20.35
2019-04-26T11:48:14.941Z,20.37
2019-04-26T11:50:51.794Z,20.40
2019-04-26T11:53:21.742Z,20.09
2019-04-26T11:59:21.443Z,19.94
2019-04-26T12:05:23.094Z,20.41
2019-04-26T12:08:15.610Z,20.71
2019-04-26T12:10:46.368Z,21.04
2019-04-26T12:13:59.510Z,21.34
2019-04-26T12:16:51.304Z,21.29
2019-04-26T12:22:43.270Z,22.03
2019-04-26T12:25:48.897Z,22.18
2019-04-26T12:31:56.446Z,21.87
2019-04-26T12:34:29.160Z,21.21
2019-04-26T12:36:59.945Z,21.20
2019-04-26T12:42:58.904Z,21.16
2019-04-26T12:45:51.456Z,20.81
2019-04-26T12:48:52.916Z,20.63
2019-04-26T12:51:14.204Z,20.70
2019-04-26T12:56:55.310Z,20.17
2019-04-26T12:59:47.801Z,19.60
2019-04-26T13:05:22.168Z,19.39
2019-04-26T13:07:54.763Z,19.43
2019-04-26T13:10:46.127Z,19.46
2019-04-26T13:13:36.068Z,19.74
2019-04-26T13:16:45.664Z,19.85
2019-04-26T13:19:19.859Z,19.64
2019-04-26T13:25:26.272Z,19.60
2019-04-26T13:28:10.866Z,19.69
2019-04-26T13:40:13.781Z,19.54
2019-04-26T13:43:26.936Z,19.38
2019-04-26T13:46:38.311Z,19.53
2019-04-26T13:49:31.197Z,19.61
2019-04-26T13:52:22.307Z,19.43
2019-04-26T13:55:18.304Z,19.87
2019-04-26T13:58:27.037Z,20.46
2019-04-26T14:01:01.204Z,20.46
2019-04-26T14:04:06.906Z,20.69
2019-04-26T14:07:02.890Z,20.89
2019-04-26T14:12:35.695Z,21.86
2019-04-26T14:15:43.290Z,22.18
2019-04-26T14:18:00.235Z,22.14
2019-04-26T14:20:54.775Z,22.18
2019-04-26T14:24:01.636Z,22.38
2019-04-26T14:26:56.560Z,22.43
2019-04-26T14:29:48.813Z,22.34
2019-04-26T14:32:43.735Z,22.01
2019-04-26T14:38:28.007Z,21.55
2019-04-26T14:41:22.503Z,21.58
2019-04-26T14:44:15.622Z,21.51
2019-04-26T14:47:22.404Z,21.44
2019-04-26T14:50:14.191Z,21.52
2019-04-26T14:52:46.167Z,21.44
2019-04-26T14:55:21.320Z,21.65
2019-04-26T14:58:13.065Z,21.83
2019-04-26T15:04:07.776Z,21.94
2019-04-26T15:10:53.024Z,21.91
2019-04-26T15:13:54.402Z,21.81
2019-04-26T15:17:09.609Z,21.69
2019-04-26T15:20:16.805Z,21.69
2019-04-26T15:30:00.707Z,21.69
2019-04-26T15:32:53.045Z,21.30
2019-04-26T15:35:59.500Z,21.37
2019-04-26T15:39:08.010Z,21.61
2019-04-26T15:42:29.215Z,21.98
2019-04-26T15:45:59.053Z,22.09
2019-04-26T15:49:13.130Z,21.89
2019-04-26T15:52:36.693Z,22.01
2019-04-26T16:01:32.510Z,21.66
2019-04-26T16:04:35.423Z,20.54
2019-04-26T16:10:19.250Z,20.78
2019-04-26T16:13:21.416Z,21.06
2019-04-26T16:16:04.881Z,21.13
2019-04-26T16:18:57.223Z,21.30
2019-04-26T16:21:28.274Z,21.59
2019-04-26T16:30:42.865Z,22.22
2019-04-26T16:33:45.704Z,22.40
2019-04-26T16:36:27.902Z,22.65
2019-04-26T16:42:39.607Z,22.77
2019-04-26T16:48:17.338Z,22.62
2019-04-26T16:50:49.465Z,22.81
2019-04-26T16:56:43.952Z,22.86
2019-04-26T16:59:46.602Z,22.61
2019-04-26T17:02:52.726Z,22.78
2019-04-26T17:05:56.754Z,22.58
2019-04-26T17:12:02.567Z,22.26
2019-04-26T17:14:34.221Z,22.26
2019-04-26T17:19:48.293Z,22.32
2019-04-26T17:22:44.491Z,22.33
2019-04-26T17:31:39.917Z,21.88
2019-04-26T17:34:17.066Z,21.88
2019-04-26T17:36:50.387Z,21.84
2019-04-26T17:39:47.398Z,21.72
2019-04-26T17:42:16.523Z,21.81
2019-04-26T17:54:26.601Z,21.83
2019-04-26T17:57:25.414Z,21.85
2019-04-26T17:59:36.857Z,21.60
2019-04-26T18:02:24.211Z,21.37
2019-04-26T18:04:43.241Z,21.30
2019-04-26T18:22:36.531Z,20.87
2019-04-26T18:25:14.708Z,20.78
2019-04-26T18:28:08.702Z,20.70
2019-04-26T18:31:00.205Z,20.65
2019-04-26T18:34:01.811Z,20.87
2019-04-26T18:40:16.690Z,20.53
2019-04-26T18:52:08.796Z,20.52
2019-04-26T18:55:21.344Z,20.59
2019-04-26T18:58:10.316Z,20.48
2019-04-26T19:04:12.821Z,20.34
2019-04-26T19:06:31.933Z,20.40
2019-04-26T19:15:41.726Z,20.06
2019-04-26T19:18:33.305Z,20.03
2019-04-26T19:21:32.306Z,19.88
2019-04-26T19:24:27.867Z,19.49
2019-04-26T19:30:50.715Z,19.31
2019-04-26T19:40:02.894Z,19.61
2019-04-26T19:48:55.578Z,19.40
2019-04-26T19:52:05.164Z,19.30
2019-04-26T19:54:51.245Z,19.20
2019-04-26T19:57:25.440Z,18.89
2019-04-26T20:00:26.973Z,18.90
2019-04-26T20:03:17.714Z,18.69
2019-04-26T20:06:07.112Z,18.59
2019-04-26T20:12:07.706Z,18.85
2019-04-26T20:14:47.278Z,18.95
2019-04-26T20:20:32.237Z,19.17
2019-04-26T20:25:52.752Z,19.27
2019-04-26T20:28:43.970Z,19.39
2019-04-26T20:44:48.107Z,19.67
2019-04-26T20:50:00.608Z,19.57
2019-04-26T20:55:36.909Z,19.48
2019-04-26T20:58:08.796Z,19.29
2019-04-26T21:04:02.036Z,18.90
2019-04-26T21:06:53.545Z,19.03
2019-04-26T21:09:43.519Z,18.79
2019-04-26T21:12:17.441Z,18.96
2019-04-26T21:15:06.884Z,19.15
2019-04-26T21:17:36.809Z,19.24
2019-04-26T21:23:15.458Z,18.94
2019-04-26T21:28:54.269Z,18.81
2019-04-26T21:32:02.010Z,18.75
2019-04-26T21:34:50.757Z,18.70
2019-04-26T21:37:45.498Z,18.50
2019-04-26T21:40:46.889Z,18.46
2019-04-26T21:43:29.464Z,18.50
2019-04-26T21:46:36.918Z,18.70
2019-04-26T21:49:25.875Z,19.01
2019-04-26T21:52:07.377Z,18.14
2019-04-26T21:54:57.286Z,18.14
2019-04-26T21:57:28.419Z,18.21
2019-04-26T22:00:38.338Z,18.03
2019-04-26T22:03:14.324Z,18.00
2019-04-26T22:06:00.656Z,17.93
2019-04-26T22:11:44.434Z,18.15
2019-04-26T22:17:43.407Z,18.16
2019-04-26T22:20:33.826Z,18.14
2019-04-26T22:23:43.662Z,18.23
2019-04-26T22:26:48.108Z,18.13
2019-04-26T22:29:51.907Z,18.25
2019-04-26T22:32:22.995Z,18.04
2019-04-26T22:35:20.304Z,18.15
2019-04-26T22:37:49.394Z,18.09
2019-04-26T22:40:41.035Z,18.24
2019-04-26T22:43:31.588Z,18.30
2019-04-26T22:46:47.294Z,18.42
2019-04-26T22:49:14.441Z,18.40
2019-04-26T22:54:55.779Z,18.45
2019-04-26T23:03:20.569Z,18.67
2019-04-26T23:06:15.169Z,18.78
2019-04-26T23:09:07.362Z,18.66
2019-04-26T23:18:08.131Z,18.43
2019-04-26T23:21:03.559Z,18.48
2019-04-26T23:23:47.150Z,18.12
2019-04-26T23:26:37.528Z,18.12
2019-04-26T23:35:43.763Z,17.98
2019-04-26T23:38:34.517Z,17.84
2019-04-26T23:41:06.906Z,17.76
2019-04-26T23:46:36.917Z,18.02
2019-04-26T23:49:30.430Z,18.22
2019-04-26T23:52:39.102Z,18.17
2019-04-26T23:55:10.275Z,18.24
2019-04-26T23:57:41.105Z,18.15
